Time;durP1;ratioP1;P1;durP2;ratioP2;P2;SDS_P1;SDS_P2;PMS_P1;PMS_P2;Temp;Humidity;BMP_temperature;BMP_pressure;BME280_temperature;BME280_humidity;BME280_pressure;Samples;Min_cycle;Max_cycle;Signal;HPM_P1;HPM_P2
2022/02/11 00:01:19;;;;;;;3.75;1.85;;;;;;;;;;4986996;28;20038;-63
2022/02/11 00:09:02;;;;;;;12.45;1.48;;;;;;;;;;4986130;28;20124;-62
2022/02/11 00:11:34;;;;;;;4.53;1.75;;;;;;;;;;4969045;28;20128;-63
2022/02/11 00:14:00;;;;;;;9.88;2.17;;;;;;;;;;4968836;28;20030;-62
2022/02/11 00:16:25;;;;;;;9.25;1.58;;;;;;;;;;4969843;28;20370;-63
2022/02/11 00:18:58;;;;;;;6.18;1.55;;;;;;;;;;4973641;28;20120;-63
2022/02/11 00:21:26;;;;;;;13.70;1.90;;;;;;;;;;4972108;28;20042;-64
2022/02/11 00:23:51;;;;;;;4.90;1.70;;;;;;;;;;4969851;28;22070;-62
2022/02/11 00:26:17;;;;;;;7.13;1.52;;;;;;;;;;4954966;28;20057;-63
2022/02/11 00:33:46;;;;;;;6.68;1.42;;;;;;;;;;4973186;28;20042;-62
2022/02/11 00:36:16;;;;;;;10.35;1.52;;;;;;;;;;4968615;28;20091;-63
2022/02/11 01:02:57;;;;;;;4.57;1.38;;;;;;;;;;4989202;28;20108;-62
2022/02/11 01:05:22;;;;;;;9.07;1.25;;;;;;;;;;4973008;28;20958;-62
2022/02/11 01:07:50;;;;;;;5.03;1.88;;;;;;;;;;4970125;28;20021;-62
2022/02/11 01:10:22;;;;;;;10.60;2.10;;;;;;;;;;4967302;28;20036;-62
2022/02/11 01:12:52;;;;;;;15.40;2.08;;;;;;;;;;4989156;28;20050;-62
2022/02/11 01:15:21;;;;;;;14.75;1.95;;;;;;;;;;4987717;28;20033;-62
2022/02/11 01:17:53;;;;;;;4.90;1.77;;;;;;;;;;4988990;28;20053;-62
2022/02/11 01:21:07;;;;;;;8.02;1.98;;;;;;;;;;4956489;28;20034;-63
2022/02/11 01:31:06;;;;;;;8.82;1.50;;;;;;;;;;4988453;28;20104;-61
2022/02/11 01:45:00;;;;;;;5.85;2.20;;;;;;;;;;4986003;28;20053;-62
2022/02/11 01:52:23;;;;;;;;;;;;;;;;;;4988857;28;20084;-60
2022/02/11 02:24:17;;;;;;;13.43;1.65;;;;;;;;;;4889418;29;20276;-61
2022/02/11 02:59:09;;;;;;;13.27;1.98;;;;;;;;;;4992224;28;20100;-59
2022/02/11 03:01:49;;;;;;;14.23;2.05;;;;;;;;;;4968055;28;20916;-60
2022/02/11 04:53:12;;;;;;;16.35;1.27;;;;;;;;;;4968500;28;20026;-58
2022/02/11 04:55:32;;;;;;;12.82;2.05;;;;;;;;;;4985091;28;20489;-58
2022/02/11 05:00:42;;;;;;;13.43;1.52;;;;;;;;;;4972438;28;20056;-59
2022/02/11 05:03:07;;;;;;;18.65;2.15;;;;;;;;;;4989880;28;20571;-59
2022/02/11 05:05:51;;;;;;;14.70;1.65;;;;;;;;;;4971244;28;21001;-58
2022/02/11 05:08:21;;;;;;;13.05;1.52;;;;;;;;;;4987897;28;20065;-59
2022/02/11 05:10:50;;;;;;;17.27;2.47;;;;;;;;;;4969173;28;20041;-59
2022/02/11 05:13:18;;;;;;;20.73;2.15;;;;;;;;;;4988437;28;20045;-60
2022/02/11 05:15:46;;;;;;;6.43;1.25;;;;;;;;;;4968428;28;20409;-58
2022/02/11 05:18:12;;;;;;;16.23;1.73;;;;;;;;;;4990555;28;20030;-59
2022/02/11 05:20:38;;;;;;;7.60;1.38;;;;;;;;;;4971093;28;20394;-61
2022/02/11 05:23:09;;;;;;;19.23;2.22;;;;;;;;;;4989454;28;20095;-58
2022/02/11 05:25:37;;;;;;;8.57;1.42;;;;;;;;;;4985874;28;20041;-57
2022/02/11 05:28:03;;;;;;;14.63;2.17;;;;;;;;;;4965602;28;20123;-59
2022/02/11 05:30:33;;;;;;;16.58;1.75;;;;;;;;;;4986842;28;20034;-58
2022/02/11 05:33:05;;;;;;;20.60;2.45;;;;;;;;;;4968333;28;20090;-60
2022/02/11 05:35:33;;;;;;;13.68;1.77;;;;;;;;;;4987341;28;20021;-61
2022/02/11 05:38:03;;;;;;;15.05;1.23;;;;;;;;;;4954038;28;20119;-59
2022/02/11 05:40:34;;;;;;;23.70;2.42;;;;;;;;;;4949772;28;20034;-60
2022/02/11 05:43:04;;;;;;;13.68;2.75;;;;;;;;;;4955776;28;20037;-62
2022/02/11 05:45:32;;;;;;;25.73;2.67;;;;;;;;;;4952767;28;20172;-58
2022/02/11 05:48:02;;;;;;;27.92;3.00;;;;;;;;;;4971378;28;20036;-57
2022/02/11 05:50:30;;;;;;;19.80;3.03;;;;;;;;;;4986984;28;20123;-59
2022/02/11 05:53:01;;;;;;;6.32;1.77;;;;;;;;;;4967539;28;20042;-60
2022/02/11 05:55:29;;;;;;;26.50;1.90;;;;;;;;;;4968482;28;20058;-57
2022/02/11 05:57:56;;;;;;;21.08;2.53;;;;;;;;;;4986575;28;20417;-59
2022/02/11 06:00:24;;;;;;;21.45;3.00;;;;;;;;;;4968768;28;20033;-62
2022/02/11 06:02:49;;;;;;;12.48;2.05;;;;;;;;;;4964931;28;20038;-61
2022/02/11 06:05:19;;;;;;;20.88;2.28;;;;;;;;;;4970098;28;20027;-60
2022/02/11 06:07:47;;;;;;;13.77;1.63;;;;;;;;;;4967964;28;20777;-61
2022/02/11 06:10:13;;;;;;;14.32;1.55;;;;;;;;;;4984811;28;20072;-57
2022/02/11 06:12:40;;;;;;;18.75;1.65;;;;;;;;;;4985050;28;20149;-59
2022/02/11 06:15:08;;;;;;;6.70;1.42;;;;;;;;;;4975782;28;20036;-60
2022/02/11 06:17:38;;;;;;;18.83;1.52;;;;;;;;;;4985555;28;20117;-61
2022/02/11 06:20:07;;;;;;;22.63;2.03;;;;;;;;;;4984544;28;20026;-59
2022/02/11 06:22:35;;;;;;;21.48;2.58;;;;;;;;;;4983091;28;20121;-60
2022/02/11 06:25:00;;;;;;;17.40;2.42;;;;;;;;;;4966643;28;21850;-62
2022/02/11 06:27:28;;;;;;;18.38;1.95;;;;;;;;;;4969519;28;20037;-59
2022/02/11 06:29:55;;;;;;;17.75;2.25;;;;;;;;;;4984461;28;22164;-61
2022/02/11 06:32:23;;;;;;;12.35;1.50;;;;;;;;;;4985532;28;20037;-61
2022/02/11 06:34:50;;;;;;;17.00;2.00;;;;;;;;;;4969696;28;20037;-62
2022/02/11 06:37:20;;;;;;;15.02;2.05;;;;;;;;;;4965055;28;20042;-60
2022/02/11 06:39:45;;;;;;;21.83;1.88;;;;;;;;;;4984730;28;20161;-60
2022/02/11 06:42:11;;;;;;;31.73;3.10;;;;;;;;;;4953399;28;20034;-60
2022/02/11 06:44:36;;;;;;;12.68;2.20;;;;;;;;;;4983071;28;20501;-60
2022/02/11 06:47:02;;;;;;;18.73;1.70;;;;;;;;;;4984522;28;20501;-59
2022/02/11 06:49:28;;;;;;;12.60;1.60;;;;;;;;;;4965549;28;20135;-61
2022/02/11 06:51:54;;;;;;;9.20;1.30;;;;;;;;;;4969351;28;20034;-62
2022/02/11 06:54:22;;;;;;;13.95;1.45;;;;;;;;;;4955504;28;20033;-60
2022/02/11 06:56:47;;;;;;;8.23;1.55;;;;;;;;;;4985606;28;20026;-62
2022/02/11 06:59:15;;;;;;;19.90;2.03;;;;;;;;;;4968689;28;21929;-61
2022/02/11 07:01:42;;;;;;;20.63;1.88;;;;;;;;;;4986722;28;20125;-61
2022/02/11 07:04:08;;;;;;;22.48;1.98;;;;;;;;;;4987773;28;20025;-61
2022/02/11 07:06:36;;;;;;;19.33;2.17;;;;;;;;;;4988272;28;20136;-60
2022/02/11 07:09:06;;;;;;;24.90;1.92;;;;;;;;;;4970305;28;20048;-60
2022/02/11 07:11:39;;;;;;;14.10;1.95;;;;;;;;;;4970827;28;20088;-61
2022/02/11 07:14:04;;;;;;;28.88;2.08;;;;;;;;;;4987979;28;20400;-62
2022/02/11 07:16:32;;;;;;;14.25;1.80;;;;;;;;;;4970580;28;20027;-62
2022/02/11 07:19:02;;;;;;;7.18;1.40;;;;;;;;;;4970817;28;20383;-61
2022/02/11 07:21:30;;;;;;;15.43;1.67;;;;;;;;;;4985962;28;20128;-61
2022/02/11 07:23:58;;;;;;;13.98;1.48;;;;;;;;;;4988052;28;20750;-60
2022/02/11 07:26:29;;;;;;;22.55;2.63;;;;;;;;;;4969586;28;20159;-61
2022/02/11 07:28:56;;;;;;;9.20;1.35;;;;;;;;;;4985767;28;20068;-60
2022/02/11 07:31:24;;;;;;;19.20;1.33;;;;;;;;;;4986509;28;20029;-63
2022/02/11 07:33:52;;;;;;;15.38;2.28;;;;;;;;;;4969735;28;20048;-61
2022/02/11 07:36:18;;;;;;;18.58;1.77;;;;;;;;;;4988774;28;21003;-60
2022/02/11 07:38:50;;;;;;;12.63;1.50;;;;;;;;;;4971678;28;20026;-61
2022/02/11 07:41:19;;;;;;;15.02;1.65;;;;;;;;;;4988604;28;20065;-60
2022/02/11 07:43:48;;;;;;;9.50;1.55;;;;;;;;;;4971593;28;20362;-62
2022/02/11 07:46:15;;;;;;;11.55;1.30;;;;;;;;;;4990076;28;20048;-61
2022/02/11 07:48:41;;;;;;;14.77;1.73;;;;;;;;;;4989524;28;20038;-60
2022/02/11 07:51:11;;;;;;;12.88;1.75;;;;;;;;;;4990498;28;20034;-61
2022/02/11 07:53:39;;;;;;;16.27;1.58;;;;;;;;;;4972985;28;20030;-60
2022/02/11 07:56:04;;;;;;;15.30;2.42;;;;;;;;;;4986013;28;20013;-62
2022/02/11 07:58:30;;;;;;;16.55;1.60;;;;;;;;;;4988797;28;20101;-61
2022/02/11 08:00:57;;;;;;;13.52;1.85;;;;;;;;;;4988549;28;20490;-61
2022/02/11 08:03:23;;;;;;;11.05;1.90;;;;;;;;;;4986509;28;20034;-62
2022/02/11 08:05:51;;;;;;;12.57;2.60;;;;;;;;;;4972240;28;20577;-59
2022/02/11 08:08:16;;;;;;;26.92;2.63;;;;;;;;;;4990104;28;20053;-61
2022/02/11 08:10:41;;;;;;;18.27;2.25;;;;;;;;;;4989810;28;21051;-60
2022/02/11 08:13:07;;;;;;;10.75;2.05;;;;;;;;;;4975290;28;20048;-60
2022/02/11 08:15:35;;;;;;;17.13;1.98;;;;;;;;;;4956207;28;20029;-61
2022/02/11 08:18:05;;;;;;;11.45;2.17;;;;;;;;;;4987552;28;20068;-61
2022/02/11 08:20:31;;;;;;;15.35;2.85;;;;;;;;;;4972372;28;20033;-62
2022/02/11 08:22:59;;;;;;;29.33;2.70;;;;;;;;;;4989883;28;20034;-61
2022/02/11 08:28:36;;;;;;;19.40;3.10;;;;;;;;;;4988034;28;20048;-60
2022/02/11 08:31:02;;;;;;;17.35;2.00;;;;;;;;;;4985848;28;20292;-61
2022/02/11 08:33:30;;;;;;;19.02;2.13;;;;;;;;;;4988934;28;20029;-61
2022/02/11 08:36:01;;;;;;;12.57;2.33;;;;;;;;;;4986638;28;20033;-61
2022/02/11 08:38:31;;;;;;;13.18;2.25;;;;;;;;;;4955290;28;21253;-62
2022/02/11 08:40:56;;;;;;;22.42;2.30;;;;;;;;;;4970039;28;20120;-61
2022/02/11 08:43:27;;;;;;;16.92;2.92;;;;;;;;;;4971258;28;20026;-62
2022/02/11 08:45:57;;;;;;;21.48;2.60;;;;;;;;;;4988599;28;20464;-62
2022/02/11 08:48:23;;;;;;;13.98;2.53;;;;;;;;;;4988994;28;20462;-62
2022/02/11 08:50:51;;;;;;;27.88;2.90;;;;;;;;;;4988917;28;20048;-60
2022/02/11 08:53:17;;;;;;;21.27;3.03;;;;;;;;;;4987385;28;20034;-62
2022/02/11 08:55:42;;;;;;;10.70;2.58;;;;;;;;;;4987674;28;20022;-62
2022/02/11 08:58:10;;;;;;;19.60;2.60;;;;;;;;;;4989945;28;21161;-62
2022/02/11 09:00:38;;;;;;;16.70;2.22;;;;;;;;;;4969959;28;20049;-62
2022/02/11 09:03:06;;;;;;;15.05;2.35;;;;;;;;;;4985975;28;20060;-64
2022/02/11 09:05:34;;;;;;;13.55;2.08;;;;;;;;;;4989404;28;20054;-61
2022/02/11 09:08:01;;;;;;;8.80;2.42;;;;;;;;;;4989101;28;20097;-62
2022/02/11 09:10:27;;;;;;;14.63;2.40;;;;;;;;;;4989972;28;20108;-61
2022/02/11 09:13:14;;;;;;;7.32;1.50;;;;;;;;;;4990159;28;20258;-61
2022/02/11 09:15:43;;;;;;;5.90;1.50;;;;;;;;;;4986152;28;20819;-61
2022/02/11 09:18:14;;;;;;;14.20;1.80;;;;;;;;;;4967306;28;20762;-62
2022/02/11 09:20:40;;;;;;;18.33;2.17;;;;;;;;;;4968398;28;20037;-63
2022/02/11 09:23:11;;;;;;;20.95;2.70;;;;;;;;;;4971232;28;20030;-62
2022/02/11 09:25:38;;;;;;;26.30;2.47;;;;;;;;;;4973131;28;20033;-61
2022/02/11 09:28:06;;;;;;;12.88;2.35;;;;;;;;;;4971991;28;21952;-60
2022/02/11 09:30:31;;;;;;;16.33;2.00;;;;;;;;;;4970726;28;20143;-63
2022/02/11 09:33:00;;;;;;;21.52;2.50;;;;;;;;;;4988198;28;20148;-62
2022/02/11 09:35:28;;;;;;;26.00;3.05;;;;;;;;;;4987804;28;20030;-61
2022/02/11 09:37:57;;;;;;;19.67;2.15;;;;;;;;;;4988623;28;20029;-62
2022/02/11 09:40:22;;;;;;;17.35;2.40;;;;;;;;;;4967557;28;20029;-63
2022/02/11 09:42:54;;;;;;;21.13;2.25;;;;;;;;;;4972787;28;20140;-62
2022/02/11 09:45:20;;;;;;;19.92;2.50;;;;;;;;;;4967951;28;20034;-61
2022/02/11 09:47:54;;;;;;;18.17;2.28;;;;;;;;;;4953642;28;20025;-62
2022/02/11 09:50:25;;;;;;;12.98;2.05;;;;;;;;;;4972853;28;20053;-62
2022/02/11 09:52:51;;;;;;;17.48;2.28;;;;;;;;;;4990194;28;20085;-63
2022/02/11 09:55:33;;;;;;;23.33;3.28;;;;;;;;;;4988748;28;20504;-63
2022/02/11 09:58:03;;;;;;;19.30;2.22;;;;;;;;;;4987852;28;20046;-62
2022/02/11 10:00:34;;;;;;;19.88;2.80;;;;;;;;;;4985447;28;20938;-62
2022/02/11 10:03:25;;;;;;;18.35;2.10;;;;;;;;;;4987529;28;20050;-62
2022/02/11 10:06:00;;;;;;;12.32;2.83;;;;;;;;;;4967203;28;20050;-62
2022/02/11 10:08:29;;;;;;;20.25;2.47;;;;;;;;;;4966948;28;20045;-62
2022/02/11 10:14:16;;;;;;;25.98;3.15;;;;;;;;;;4968787;28;21593;-62
2022/02/11 10:19:56;;;;;;;28.50;2.15;;;;;;;;;;4973141;28;20131;-63
2022/02/11 10:22:27;;;;;;;31.05;2.78;;;;;;;;;;4987572;28;20038;-60
2022/02/11 10:28:20;;;;;;;19.08;1.60;;;;;;;;;;4987804;28;20654;-62
2022/02/11 10:31:00;;;;;;;16.23;2.40;;;;;;;;;;4985947;28;20030;-61
2022/02/11 10:33:31;;;;;;;15.20;1.88;;;;;;;;;;4984190;28;20773;-60
2022/02/11 10:36:12;;;;;;;12.55;1.90;;;;;;;;;;4989290;28;20030;-60
2022/02/11 10:38:37;;;;;;;14.50;1.98;;;;;;;;;;4969503;28;20038;-60
2022/02/11 10:41:05;;;;;;;17.48;2.60;;;;;;;;;;4973320;28;20057;-60
2022/02/11 10:43:31;;;;;;;12.30;2.30;;;;;;;;;;4987781;28;20175;-62
2022/02/11 10:46:03;;;;;;;23.90;2.17;;;;;;;;;;4986503;28;22101;-61
2022/02/11 10:48:35;;;;;;;13.23;1.50;;;;;;;;;;4987419;28;20596;-62
2022/02/11 10:51:02;;;;;;;23.73;2.38;;;;;;;;;;4985892;28;20026;-64
2022/02/11 10:53:34;;;;;;;23.55;2.75;;;;;;;;;;4984551;28;20034;-62
2022/02/11 10:56:02;;;;;;;18.58;2.00;;;;;;;;;;4987984;28;20116;-62
2022/02/11 10:58:28;;;;;;;19.33;2.03;;;;;;;;;;4970529;28;20064;-61
2022/02/11 11:01:01;;;;;;;12.82;1.90;;;;;;;;;;4988087;28;20041;-60
2022/02/11 11:03:31;;;;;;;10.70;1.67;;;;;;;;;;4966392;28;20045;-61
2022/02/11 11:06:03;;;;;;;8.90;1.45;;;;;;;;;;4970340;28;21783;-61
2022/02/11 11:08:30;;;;;;;23.17;2.72;;;;;;;;;;4984263;28;20034;-61
2022/02/11 11:10:56;;;;;;;9.85;1.35;;;;;;;;;;4969203;28;20084;-61
2022/02/11 11:13:25;;;;;;;9.88;1.73;;;;;;;;;;4968694;28;21258;-60
2022/02/11 11:19:36;;;;;;;7.90;1.85;;;;;;;;;;4990014;28;20183;-58
2022/02/11 11:22:14;;;;;;;8.20;1.48;;;;;;;;;;4990491;28;20358;-59
2022/02/11 11:24:50;;;;;;;11.30;1.27;;;;;;;;;;4973379;28;20734;-60
2022/02/11 11:30:27;;;;;;;10.65;1.45;;;;;;;;;;4976925;28;20187;-62
2022/02/11 11:33:04;;;;;;;14.32;1.77;;;;;;;;;;4989160;28;20026;-61
2022/02/11 11:35:41;;;;;;;11.50;2.05;;;;;;;;;;4988741;28;20030;-64
2022/02/11 11:38:11;;;;;;;18.38;1.92;;;;;;;;;;4969110;28;20073;-63
2022/02/11 11:40:40;;;;;;;15.18;2.05;;;;;;;;;;4992643;28;20100;-62
2022/02/11 11:43:15;;;;;;;21.23;2.30;;;;;;;;;;4991100;28;20547;-62
2022/02/11 11:45:43;;;;;;;11.80;1.38;;;;;;;;;;4991993;28;20703;-62
2022/02/11 11:51:44;;;;;;;12.10;1.50;;;;;;;;;;4986831;28;20116;-62
2022/02/11 11:54:21;;;;;;;19.83;1.88;;;;;;;;;;4975927;28;20038;-63
2022/02/11 11:56:46;;;;;;;;;;;;;;;;;;4974097;28;20037;-62
2022/02/11 11:59:20;;;;;;;7.95;2.08;;;;;;;;;;4989201;28;19960;-64
2022/02/11 12:01:51;;;;;;;7.97;1.10;;;;;;;;;;4991089;28;20029;-62
2022/02/11 12:04:23;;;;;;;15.32;1.80;;;;;;;;;;4990029;28;20045;-63
2022/02/11 12:10:23;;;;;;;12.23;1.77;;;;;;;;;;4991981;28;20545;-62
2022/02/11 12:12:56;;;;;;;12.02;1.60;;;;;;;;;;4989652;28;20037;-61
2022/02/11 12:15:27;;;;;;;15.38;2.00;;;;;;;;;;4973732;28;20018;-63
2022/02/11 12:17:54;;;;;;;13.90;1.70;;;;;;;;;;4988858;28;20025;-61
2022/02/11 12:27:31;;;;;;;7.65;1.52;;;;;;;;;;4988541;28;20140;-63
2022/02/11 12:29:57;;;;;;;14.15;1.13;;;;;;;;;;4972750;28;20064;-63
2022/02/11 12:32:26;;;;;;;11.15;1.30;;;;;;;;;;4988086;28;20053;-63
2022/02/11 12:34:57;;;;;;;10.52;1.08;;;;;;;;;;4986579;28;20042;-62
2022/02/11 12:41:01;;;;;;;6.65;1.42;;;;;;;;;;4987786;28;20456;-63
2022/02/11 12:47:05;;;;;;;7.25;1.35;;;;;;;;;;4984619;28;20148;-64
2022/02/11 12:49:33;;;;;;;7.15;1.27;;;;;;;;;;4965845;28;20041;-62
2022/02/11 12:52:03;;;;;;;7.00;1.27;;;;;;;;;;4985275;28;20044;-62
2022/02/11 12:54:30;;;;;;;11.25;1.23;;;;;;;;;;4986603;28;20561;-63
2022/02/11 12:57:01;;;;;;;7.93;1.25;;;;;;;;;;4986018;28;20034;-63
2022/02/11 12:59:30;;;;;;;9.30;1.10;;;;;;;;;;4986945;28;20029;-64
2022/02/11 13:01:58;;;;;;;13.02;1.52;;;;;;;;;;4970650;28;20049;-63
2022/02/11 13:04:26;;;;;;;8.32;1.30;;;;;;;;;;4970328;28;20504;-64
2022/02/11 13:06:55;;;;;;;9.80;1.35;;;;;;;;;;4974075;28;20058;-63
2022/02/11 13:09:25;;;;;;;6.22;1.15;;;;;;;;;;4986356;28;20090;-63
2022/02/11 13:11:58;;;;;;;5.93;1.25;;;;;;;;;;4968195;28;20185;-62
2022/02/11 13:14:27;;;;;;;3.63;0.75;;;;;;;;;;4967957;28;20397;-62
2022/02/11 13:16:52;;;;;;;4.55;0.85;;;;;;;;;;4985862;28;20026;-63
2022/02/11 13:19:18;;;;;;;7.47;0.85;;;;;;;;;;4956277;28;20029;-64
2022/02/11 13:21:46;;;;;;;8.20;0.88;;;;;;;;;;4986059;28;20029;-62
2022/02/11 13:24:14;;;;;;;9.25;1.00;;;;;;;;;;4972179;28;20068;-63
2022/02/11 13:26:40;;;;;;;8.57;0.90;;;;;;;;;;4969777;28;20057;-64
2022/02/11 13:29:16;;;;;;;6.20;1.20;;;;;;;;;;4983703;28;20042;-64
2022/02/11 13:31:51;;;;;;;12.40;1.60;;;;;;;;;;4986278;28;20530;-62
2022/02/11 13:34:17;;;;;;;9.43;1.13;;;;;;;;;;4986657;28;20670;-63
2022/02/11 13:36:50;;;;;;;20.67;2.08;;;;;;;;;;4987984;28;20045;-63
2022/02/11 13:39:28;;;;;;;12.55;1.38;;;;;;;;;;4987283;28;20173;-62
2022/02/11 13:41:54;;;;;;;6.70;0.85;;;;;;;;;;4955514;28;20072;-63
2022/02/11 13:44:21;;;;;;;5.25;1.00;;;;;;;;;;4984826;28;20877;-62
2022/02/11 13:46:53;;;;;;;5.45;1.38;;;;;;;;;;4969490;28;20470;-63
2022/02/11 13:49:21;;;;;;;9.32;1.33;;;;;;;;;;4987708;28;20038;-62
2022/02/11 13:53:01;;;;;;;12.20;1.27;;;;;;;;;;4965426;28;20033;-62
2022/02/11 13:55:03;;;;;;;7.68;1.55;;;;;;;;;;4987461;28;20946;-62
2022/02/11 13:57:33;;;;;;;11.95;1.52;;;;;;;;;;4985159;28;20022;-62
2022/02/11 14:00:18;;;;;;;10.43;1.80;;;;;;;;;;4982965;28;20260;-64
2022/02/11 14:02:46;;;;;;;8.27;1.48;;;;;;;;;;4985428;28;20022;-63
2022/02/11 14:05:16;;;;;;;10.60;1.85;;;;;;;;;;4986306;28;20041;-64
2022/02/11 14:07:51;;;;;;;14.77;2.40;;;;;;;;;;4968405;28;20041;-62
2022/02/11 14:10:19;;;;;;;13.35;1.40;;;;;;;;;;4965172;28;20963;-63
2022/02/11 14:12:47;;;;;;;7.10;0.82;;;;;;;;;;4982941;28;20046;-63
2022/02/11 14:15:41;;;;;;;15.07;1.50;;;;;;;;;;4970562;28;20042;-63
2022/02/11 14:18:09;;;;;;;3.80;0.90;;;;;;;;;;4985463;28;20034;-62
2022/02/11 14:20:56;;;;;;;11.38;1.33;;;;;;;;;;4969495;28;20091;-63
2022/02/11 14:23:23;;;;;;;7.80;0.98;;;;;;;;;;4966680;28;20512;-64
2022/02/11 14:25:51;;;;;;;2.00;0.63;;;;;;;;;;4984882;28;20099;-62
2022/02/11 14:28:22;;;;;;;7.18;1.25;;;;;;;;;;4985235;28;20065;-62
2022/02/11 14:30:53;;;;;;;8.32;1.30;;;;;;;;;;4953074;28;20034;-64
2022/02/11 14:33:24;;;;;;;5.60;1.30;;;;;;;;;;4967592;28;20029;-63
2022/02/11 14:35:50;;;;;;;6.30;1.10;;;;;;;;;;4969379;28;20138;-63
2022/02/11 14:38:17;;;;;;;6.32;1.20;;;;;;;;;;4986003;28;20105;-65
2022/02/11 14:41:46;;;;;;;10.13;1.50;;;;;;;;;;4971792;28;20044;-65
2022/02/11 14:43:32;;;;;;;9.88;1.38;;;;;;;;;;4984108;28;20040;-63
2022/02/11 14:46:00;;;;;;;9.02;1.20;;;;;;;;;;4962124;28;20390;-63
2022/02/11 14:48:27;;;;;;;5.60;0.82;;;;;;;;;;4948525;28;20042;-64
2022/02/11 14:50:55;;;;;;;12.95;1.60;;;;;;;;;;4983502;28;20072;-65
2022/02/11 14:53:23;;;;;;;5.20;1.20;;;;;;;;;;4969954;28;20508;-63
2022/02/11 14:55:49;;;;;;;5.70;1.40;;;;;;;;;;4974948;28;20026;-64
2022/02/11 14:58:16;;;;;;;10.82;1.33;;;;;;;;;;4974258;28;21603;-62
2022/02/11 15:04:22;;;;;;;3.90;0.90;;;;;;;;;;4988173;28;20037;-63
2022/02/11 15:06:50;;;;;;;2.35;0.82;;;;;;;;;;4974496;28;20055;-65
2022/02/11 15:09:16;;;;;;;10.00;0.95;;;;;;;;;;4970398;28;20046;-64
2022/02/11 15:11:42;;;;;;;5.63;1.23;;;;;;;;;;4974200;28;20072;-65
2022/02/11 15:17:43;;;;;;;16.63;1.50;;;;;;;;;;4989334;28;20057;-63
2022/02/11 15:20:09;;;;;;;7.13;1.25;;;;;;;;;;4974753;28;20025;-64
2022/02/11 15:22:37;;;;;;;14.68;2.38;;;;;;;;;;4951360;28;20034;-64
2022/02/11 15:25:02;;;;;;;7.18;0.70;;;;;;;;;;4962904;28;20038;-64
2022/02/11 15:27:30;;;;;;;6.95;1.15;;;;;;;;;;4983429;28;20029;-63
2022/02/11 15:29:59;;;;;;;8.25;1.33;;;;;;;;;;4984289;28;20037;-63
2022/02/11 15:32:29;;;;;;;11.70;1.13;;;;;;;;;;4984077;28;20042;-63
2022/02/11 15:34:57;;;;;;;9.57;1.33;;;;;;;;;;4945432;28;20038;-62
2022/02/11 15:37:22;;;;;;;4.15;0.90;;;;;;;;;;4964709;28;20037;-64
2022/02/11 15:39:52;;;;;;;6.03;1.20;;;;;;;;;;4969250;28;20099;-63
2022/02/11 15:42:20;;;;;;;13.50;1.38;;;;;;;;;;4970990;28;20041;-63
2022/02/11 15:44:45;;;;;;;13.48;0.98;;;;;;;;;;4970233;28;20096;-62
2022/02/11 15:47:13;;;;;;;12.65;1.98;;;;;;;;;;4974194;28;20137;-63
2022/02/11 15:49:46;;;;;;;11.40;1.65;;;;;;;;;;4971265;28;20025;-63
2022/02/11 15:52:11;;;;;;;11.57;0.70;;;;;;;;;;4971437;28;20042;-63
2022/02/11 15:54:37;;;;;;;8.98;1.42;;;;;;;;;;4954219;28;20121;-62
2022/02/11 15:57:05;;;;;;;12.75;2.50;;;;;;;;;;4982618;28;20095;-63
2022/02/11 16:03:10;;;;;;;9.88;0.98;;;;;;;;;;4986387;28;20069;-63
2022/02/11 16:05:39;;;;;;;5.60;0.60;;;;;;;;;;4967761;28;20091;-63
2022/02/11 16:08:04;;;;;;;6.55;0.85;;;;;;;;;;4970485;28;20036;-63
2022/02/11 16:10:30;;;;;;;4.70;0.65;;;;;;;;;;4984602;28;20030;-63
2022/02/11 16:13:00;;;;;;;7.65;1.48;;;;;;;;;;4986995;28;20045;-62
2022/02/11 16:15:28;;;;;;;6.20;1.20;;;;;;;;;;4983358;28;20030;-63
2022/02/11 16:18:00;;;;;;;4.43;0.80;;;;;;;;;;4987807;28;20113;-63
2022/02/11 16:20:32;;;;;;;4.15;0.80;;;;;;;;;;4983612;28;20037;-62
2022/02/11 16:22:58;;;;;;;1.98;0.55;;;;;;;;;;4968124;28;20116;-63
2022/02/11 16:25:26;;;;;;;7.10;0.85;;;;;;;;;;4972853;28;20026;-62
2022/02/11 16:27:53;;;;;;;5.43;0.85;;;;;;;;;;4986817;28;20030;-65
2022/02/11 16:30:19;;;;;;;6.13;0.88;;;;;;;;;;4986564;28;20378;-63
2022/02/11 16:32:45;;;;;;;5.55;0.80;;;;;;;;;;4987150;28;20457;-63
2022/02/11 16:35:13;;;;;;;4.53;0.95;;;;;;;;;;4989292;28;20449;-62
2022/02/11 16:37:38;;;;;;;10.07;0.77;;;;;;;;;;4988140;28;20128;-62
2022/02/11 16:40:09;;;;;;;5.55;0.80;;;;;;;;;;4956531;28;20040;-62
2022/02/11 16:42:39;;;;;;;12.82;0.90;;;;;;;;;;4971092;28;21691;-62
2022/02/11 16:45:32;;;;;;;5.05;1.65;;;;;;;;;;4966687;28;20599;-63
2022/02/11 16:48:17;;;;;;;11.15;3.30;;;;;;;;;;4983222;28;20425;-62
2022/02/11 16:51:01;;;;;;;11.37;3.60;;;;;;;;;;4984993;28;20044;-63
2022/02/11 16:53:47;;;;;;;12.18;2.50;;;;;;;;;;4971857;28;20508;-62
2022/02/11 16:56:31;;;;;;;14.80;2.10;;;;;;;;;;4968263;28;20139;-64
2022/02/11 16:59:15;;;;;;;9.85;1.50;;;;;;;;;;4983839;28;20099;-63
2022/02/11 17:02:00;;;;;;;7.65;1.00;;;;;;;;;;4983764;28;20136;-62
2022/02/11 17:04:47;;;;;;;5.57;0.82;;;;;;;;;;4985737;28;20048;-63
2022/02/11 17:07:31;;;;;;;3.00;1.02;;;;;;;;;;4984975;28;20045;-62
2022/02/11 17:10:15;;;;;;;2.23;0.90;;;;;;;;;;4981927;28;20544;-62
2022/02/11 17:12:59;;;;;;;8.07;2.03;;;;;;;;;;4982626;28;20060;-63
2022/02/11 17:15:44;;;;;;;9.67;0.93;;;;;;;;;;4986624;28;20141;-63
2022/02/11 17:18:30;;;;;;;8.07;1.05;;;;;;;;;;4987005;28;20285;-62
2022/02/11 17:21:14;;;;;;;2.30;1.48;;;;;;;;;;4971259;28;20187;-64
2022/02/11 17:23:59;;;;;;;6.93;1.52;;;;;;;;;;4971116;28;20056;-62
2022/02/11 17:26:46;;;;;;;5.90;1.53;;;;;;;;;;4987018;28;20056;-63
2022/02/11 17:29:32;;;;;;;7.85;1.20;;;;;;;;;;4968984;28;21463;-63
2022/02/11 17:32:19;;;;;;;3.80;0.88;;;;;;;;;;4986263;28;20049;-63
2022/02/11 17:35:05;;;;;;;2.58;1.23;;;;;;;;;;4971339;28;20053;-62
2022/02/11 17:37:52;;;;;;;7.43;0.88;;;;;;;;;;4971885;28;20229;-63
2022/02/11 17:40:36;;;;;;;4.85;1.10;;;;;;;;;;4987633;28;20133;-64
2022/02/11 17:43:22;;;;;;;7.87;0.97;;;;;;;;;;4986005;28;20740;-63
2022/02/11 17:46:07;;;;;;;10.25;1.38;;;;;;;;;;4969540;28;20100;-63
2022/02/11 17:48:51;;;;;;;12.90;1.83;;;;;;;;;;4988309;28;20061;-65
2022/02/11 17:51:37;;;;;;;9.27;0.93;;;;;;;;;;4969353;28;20120;-64
2022/02/11 17:54:22;;;;;;;2.90;1.05;;;;;;;;;;4987232;28;20409;-63
2022/02/11 17:57:08;;;;;;;3.47;1.10;;;;;;;;;;4985725;28;20686;-63
2022/02/11 17:59:54;;;;;;;10.48;1.70;;;;;;;;;;4986586;28;20087;-64
2022/02/11 18:02:39;;;;;;;4.70;0.95;;;;;;;;;;4972324;28;20160;-62
2022/02/11 18:05:26;;;;;;;7.45;1.05;;;;;;;;;;4984946;28;20437;-63
2022/02/11 18:08:10;;;;;;;12.25;1.13;;;;;;;;;;4972603;28;22018;-64
2022/02/11 18:10:56;;;;;;;8.10;2.45;;;;;;;;;;4972265;28;20056;-64
2022/02/11 18:13:42;;;;;;;8.45;2.38;;;;;;;;;;4974453;28;20170;-64
2022/02/11 18:16:26;;;;;;;4.18;1.45;;;;;;;;;;4985570;28;20044;-64
2022/02/11 18:19:13;;;;;;;4.57;1.83;;;;;;;;;;4973167;28;20052;-63
2022/02/11 18:22:02;;;;;;;6.88;1.27;;;;;;;;;;4985565;28;20061;-64
2022/02/11 18:24:46;;;;;;;4.78;1.25;;;;;;;;;;4984192;28;20084;-63
2022/02/11 18:27:32;;;;;;;10.48;1.95;;;;;;;;;;4967112;28;20430;-64
2022/02/11 18:30:22;;;;;;;5.90;1.40;;;;;;;;;;4985253;28;20095;-64
2022/02/11 18:33:09;;;;;;;14.05;1.55;;;;;;;;;;4981513;28;20121;-64
2022/02/11 18:35:53;;;;;;;5.82;1.52;;;;;;;;;;4986501;28;20072;-64
2022/02/11 18:38:37;;;;;;;2.70;1.47;;;;;;;;;;4986080;28;20033;-64
2022/02/11 18:41:24;;;;;;;12.70;1.60;;;;;;;;;;4985050;28;20121;-63
2022/02/11 18:43:55;;;;;;;8.05;1.65;;;;;;;;;;4968380;28;20662;-64
2022/02/11 18:46:26;;;;;;;15.75;2.10;;;;;;;;;;4983902;28;20120;-64
2022/02/11 18:48:53;;;;;;;13.40;2.08;;;;;;;;;;4982709;28;20133;-63
2022/02/11 18:51:23;;;;;;;16.20;2.35;;;;;;;;;;4952202;28;20038;-64
2022/02/11 18:53:54;;;;;;;10.98;2.50;;;;;;;;;;4967915;28;20100;-63
2022/02/11 18:56:23;;;;;;;5.55;1.13;;;;;;;;;;4983602;28;20121;-63
2022/02/11 18:58:49;;;;;;;4.80;1.42;;;;;;;;;;4965393;28;20527;-63
2022/02/11 19:01:18;;;;;;;11.18;2.30;;;;;;;;;;4968573;28;20052;-63
2022/02/11 19:03:46;;;;;;;9.35;2.17;;;;;;;;;;4967606;28;20171;-63
2022/02/11 19:06:16;;;;;;;8.65;2.83;;;;;;;;;;4966600;28;20038;-63
2022/02/11 19:08:48;;;;;;;16.70;2.13;;;;;;;;;;4984611;28;20609;-64
2022/02/11 19:11:17;;;;;;;6.47;1.33;;;;;;;;;;4954072;28;20052;-63
2022/02/11 19:13:47;;;;;;;5.82;1.90;;;;;;;;;;4982888;28;20077;-62
2022/02/11 19:16:12;;;;;;;4.30;1.20;;;;;;;;;;4985481;28;20058;-63
2022/02/11 19:18:42;;;;;;;3.10;1.70;;;;;;;;;;4985853;28;20026;-63
2022/02/11 19:21:10;;;;;;;6.70;1.85;;;;;;;;;;4949727;28;20116;-63
2022/02/11 19:23:35;;;;;;;5.85;1.58;;;;;;;;;;4985926;28;20541;-63
2022/02/11 19:26:06;;;;;;;11.02;2.72;;;;;;;;;;4967661;28;20084;-64
2022/02/11 19:28:31;;;;;;;19.52;2.03;;;;;;;;;;4967888;28;20534;-64
2022/02/11 19:30:59;;;;;;;4.40;1.27;;;;;;;;;;4963863;28;20113;-63
2022/02/11 19:33:27;;;;;;;8.23;1.05;;;;;;;;;;4969603;28;20030;-64
2022/02/11 19:36:00;;;;;;;13.57;1.65;;;;;;;;;;4951426;28;20021;-63
2022/02/11 19:38:25;;;;;;;10.73;2.22;;;;;;;;;;4955581;28;20116;-64
2022/02/11 19:40:56;;;;;;;10.13;1.85;;;;;;;;;;4987210;28;20040;-64
2022/02/11 19:43:26;;;;;;;7.55;1.67;;;;;;;;;;4988023;28;20065;-63